Time;durP1;ratioP1;P1;durP2;ratioP2;P2;SDS_P1;SDS_P2;PMS_P1;PMS_P2;Temp;Humidity;BMP_temperature;BMP_pressure;BME280_temperature;BME280_humidity;BME280_pressure;Samples;Min_cycle;Max_cycle;Signal;HPM_P1;HPM_P2
2023/01/21 00:01:14;;;;;;;52.17;29.13;;;0.60;99.90;;;;;;5082005;28;20101;-43
2023/01/21 00:03:40;;;;;;;44.50;25.98;;;0.60;99.90;;;;;;5082240;28;20132;-43
2023/01/21 00:06:06;;;;;;;45.97;26.00;;;0.60;99.90;;;;;;5082578;28;20107;-44
2023/01/21 00:08:32;;;;;;;46.33;26.02;;;0.50;99.90;;;;;;5083279;28;20075;-42
2023/01/21 00:11:04;;;;;;;43.08;24.95;;;0.60;99.90;;;;;;5081855;28;20669;-43
2023/01/21 00:13:31;;;;;;;45.60;25.52;;;0.50;99.90;;;;;;5083414;28;20030;-43
2023/01/21 00:15:57;;;;;;;46.20;26.55;;;0.50;99.90;;;;;;5082239;28;20027;-41
2023/01/21 00:18:22;;;;;;;49.58;28.08;;;0.50;99.90;;;;;;5082475;28;20020;-43
2023/01/21 00:20:48;;;;;;;48.42;28.15;;;0.50;99.90;;;;;;5082896;28;20024;-43
2023/01/21 00:23:13;;;;;;;44.33;25.90;;;0.50;99.90;;;;;;5081635;28;20035;-43
2023/01/21 00:25:39;;;;;;;51.05;27.77;;;0.50;99.90;;;;;;5082451;28;20117;-43
2023/01/21 00:28:05;;;;;;;50.17;27.73;;;0.50;99.90;;;;;;5081773;28;20494;-43
2023/01/21 00:30:30;;;;;;;49.95;27.50;;;0.50;99.90;;;;;;5082277;28;20483;-43
2023/01/21 00:32:56;;;;;;;45.95;26.15;;;0.50;99.90;;;;;;5082408;28;20027;-43
2023/01/21 00:35:21;;;;;;;45.80;26.55;;;0.40;99.90;;;;;;5082370;28;20048;-43
2023/01/21 00:37:50;;;;;;;42.80;24.55;;;0.40;99.90;;;;;;5081478;28;20044;-43
2023/01/21 00:40:15;;;;;;;47.60;27.45;;;0.40;99.90;;;;;;5081375;28;20076;-43
2023/01/21 00:42:41;;;;;;;44.60;25.30;;;0.40;99.90;;;;;;5082837;28;20032;-42
2023/01/21 00:45:07;;;;;;;47.40;26.67;;;0.40;99.90;;;;;;5081160;28;20506;-43
2023/01/21 00:47:33;;;;;;;44.97;24.95;;;0.40;99.90;;;;;;5082616;28;20038;-42
2023/01/21 00:49:58;;;;;;;44.15;25.75;;;0.40;99.90;;;;;;5081611;28;20040;-42
2023/01/21 00:52:24;;;;;;;44.75;25.40;;;0.30;99.90;;;;;;5081092;28;20073;-42
2023/01/21 00:54:49;;;;;;;48.40;27.00;;;0.40;99.90;;;;;;5081587;28;20020;-42
2023/01/21 00:57:15;;;;;;;46.78;26.33;;;0.30;99.90;;;;;;5081194;28;20648;-42
2023/01/21 00:59:40;;;;;;;50.60;28.63;;;0.30;99.90;;;;;;5081252;28;20562;-42
2023/01/21 01:02:06;;;;;;;49.72;27.52;;;0.30;99.90;;;;;;5080310;28;20024;-43
2023/01/21 01:04:32;;;;;;;54.03;28.15;;;0.30;99.90;;;;;;5081873;28;20055;-43
2023/01/21 01:06:58;;;;;;;48.05;27.15;;;0.20;99.90;;;;;;5080627;28;20044;-43
2023/01/21 01:09:23;;;;;;;46.88;27.17;;;0.20;99.90;;;;;;5081296;28;20019;-43
2023/01/21 01:11:49;;;;;;;50.95;27.73;;;0.20;99.90;;;;;;5082217;28;20063;-43
2023/01/21 01:14:14;;;;;;;52.20;26.92;;;0.20;99.90;;;;;;5080146;28;20028;-42
2023/01/21 01:16:40;;;;;;;44.10;25.65;;;0.20;99.90;;;;;;5081934;28;20027;-42
2023/01/21 01:19:05;;;;;;;47.38;27.15;;;0.20;99.90;;;;;;5081041;28;20024;-43
2023/01/21 01:21:31;;;;;;;45.10;26.05;;;0.20;99.90;;;;;;5080470;28;20114;-43
2023/01/21 01:24:00;;;;;;;46.53;24.70;;;0.10;99.90;;;;;;5080444;28;20050;-43
2023/01/21 01:26:26;;;;;;;48.42;25.67;;;0.10;99.90;;;;;;5080440;28;20144;-43
2023/01/21 01:28:52;;;;;;;48.65;26.73;;;0.20;99.90;;;;;;5081098;28;20085;-43
2023/01/21 01:31:18;;;;;;;47.85;26.20;;;0.10;99.90;;;;;;5080743;28;20845;-43
2023/01/21 01:33:44;;;;;;;48.28;25.75;;;0.10;99.90;;;;;;5080061;28;20024;-44
2023/01/21 01:36:16;;;;;;;45.92;25.05;;;0.10;99.90;;;;;;5080657;28;20472;-43
2023/01/21 01:38:42;;;;;;;46.28;25.17;;;0.10;99.90;;;;;;5081649;28;20024;-43
2023/01/21 01:41:09;;;;;;;42.20;24.73;;;0.10;99.90;;;;;;5079947;28;20541;-42
2023/01/21 01:44:05;;;;;;;44.25;23.65;;;0.10;99.90;;;;;;5081143;28;20058;-43
2023/01/21 01:46:35;;;;;;;44.20;24.00;;;0.10;99.90;;;;;;5071274;28;20039;-43
2023/01/21 01:49:05;;;;;;;45.67;25.15;;;0.10;99.90;;;;;;5080078;28;20125;-42
2023/01/21 01:51:42;;;;;;;44.50;24.67;;;0.00;99.90;;;;;;5080676;28;20028;-43
2023/01/21 01:54:10;;;;;;;44.10;24.13;;;0.00;99.90;;;;;;5079612;28;20017;-43
2023/01/21 01:56:39;;;;;;;47.80;24.60;;;0.00;99.90;;;;;;5080482;28;20027;-44
2023/01/21 01:59:05;;;;;;;44.75;23.90;;;0.00;99.90;;;;;;5080298;28;20103;-44
2023/01/21 02:01:31;;;;;;;44.88;24.92;;;0.00;99.90;;;;;;5080078;28;20084;-42
2023/01/21 02:04:00;;;;;;;41.25;21.70;;;0.00;99.90;;;;;;5080404;28;20753;-44
2023/01/21 02:06:26;;;;;;;40.67;22.63;;;0.00;99.90;;;;;;5080122;28;20079;-43
2023/01/21 02:08:52;;;;;;;43.22;23.33;;;0.00;99.90;;;;;;5080256;28;20044;-43
2023/01/21 02:11:19;;;;;;;37.85;22.77;;;0.00;99.90;;;;;;5079993;28;20028;-43
2023/01/21 02:13:52;;;;;;;42.33;23.85;;;-0.10;99.90;;;;;;5080959;28;20036;-44
2023/01/21 02:16:18;;;;;;;41.35;22.10;;;-0.10;99.90;;;;;;5079503;28;20020;-42
2023/01/21 02:18:56;;;;;;;38.78;21.65;;;-0.10;99.90;;;;;;5081235;28;20036;-44
2023/01/21 02:21:47;;;;;;;44.67;22.55;;;-0.10;99.90;;;;;;5080942;28;20048;-43
2023/01/21 02:24:35;;;;;;;37.30;21.15;;;-0.10;99.90;;;;;;5060619;28;20056;-44
2023/01/21 02:27:41;;;;;;;42.58;23.27;;;-0.10;99.90;;;;;;5079527;28;20024;-43
2023/01/21 02:30:28;;;;;;;40.33;22.52;;;-0.10;99.90;;;;;;5016101;28;20041;-44
2023/01/21 02:33:15;;;;;;;44.80;22.60;;;-0.10;99.90;;;;;;5078674;28;20217;-43
2023/01/21 02:35:59;;;;;;;38.00;21.43;;;-0.10;99.90;;;;;;5080381;28;20048;-44
2023/01/21 02:38:28;;;;;;;40.97;20.88;;;-0.20;99.90;;;;;;5080387;28;20514;-44
2023/01/21 02:41:02;;;;;;;35.97;20.37;;;-0.20;99.90;;;;;;5080652;28;20016;-43
2023/01/21 02:43:42;;;;;;;40.50;21.70;;;-0.20;99.90;;;;;;5080729;28;20055;-44
2023/01/21 02:46:24;;;;;;;40.22;22.55;;;-0.20;99.90;;;;;;5079557;28;20858;-43
2023/01/21 02:49:06;;;;;;;36.65;21.23;;;-0.20;99.90;;;;;;5080839;28;20387;-43
2023/01/21 02:51:31;;;;;;;43.67;22.63;;;-0.20;99.90;;;;;;5079696;28;20801;-43
2023/01/21 02:53:57;;;;;;;41.85;22.60;;;-0.20;99.90;;;;;;5080376;28;20020;-43
2023/01/21 02:56:25;;;;;;;39.67;22.25;;;-0.20;99.90;;;;;;5080876;28;20020;-44
2023/01/21 02:58:56;;;;;;;44.22;23.95;;;-0.20;99.90;;;;;;5079938;28;20016;-43
2023/01/21 03:01:44;;;;;;;43.22;23.52;;;-0.20;99.90;;;;;;5079992;28;20124;-42
2023/01/21 03:04:32;;;;;;;38.90;22.53;;;-0.20;99.90;;;;;;5066282;28;20132;-43
2023/01/21 03:07:32;;;;;;;41.90;21.40;;;-0.30;99.90;;;;;;5082459;28;20036;-43
2023/01/21 03:10:17;;;;;;;35.50;20.50;;;-0.30;99.90;;;;;;5084373;28;20223;-43
2023/01/21 03:13:02;;;;;;;39.30;21.52;;;-0.30;99.90;;;;;;5082028;28;20056;-42
2023/01/21 03:18:30;;;;;;;39.00;21.43;;;-0.30;99.90;;;;;;5083940;28;20560;-43
2023/01/21 03:20:59;;;;;;;38.40;22.25;;;-0.30;99.90;;;;;;5063711;28;20365;-44
2023/01/21 03:23:45;;;;;;;36.60;20.20;;;-0.30;99.90;;;;;;5078902;28;20046;-43
2023/01/21 03:26:14;;;;;;;39.80;21.13;;;-0.30;99.90;;;;;;5062358;28;20024;-43
2023/01/21 03:28:44;;;;;;;37.43;20.03;;;-0.30;99.90;;;;;;5079484;28;20821;-43
2023/01/21 03:31:21;;;;;;;36.50;20.80;;;-0.40;99.90;;;;;;5083102;28;20024;-43
2023/01/21 03:33:51;;;;;;;36.83;19.60;;;-0.30;99.90;;;;;;5082542;28;20032;-43
2023/01/21 03:36:40;;;;;;;38.00;19.90;;;-0.40;99.90;;;;;;5082459;28;20024;-43
2023/01/21 03:39:29;;;;;;;32.63;19.63;;;-0.40;99.90;;;;;;5082971;28;20039;-43
2023/01/21 03:41:55;;;;;;;36.33;18.83;;;-0.40;99.90;;;;;;5062321;28;20028;-43
2023/01/21 03:44:20;;;;;;;35.17;19.00;;;-0.40;99.90;;;;;;5078916;28;20724;-44
2023/01/21 03:46:58;;;;;;;41.55;22.23;;;-0.40;99.90;;;;;;5083114;28;20033;-43
2023/01/21 03:49:42;;;;;;;36.92;20.20;;;-0.30;99.90;;;;;;5083064;28;20035;-43
2023/01/21 03:52:11;;;;;;;33.75;19.42;;;-0.30;99.90;;;;;;5061697;28;20028;-43
2023/01/21 03:54:38;;;;;;;33.67;18.25;;;-0.30;99.90;;;;;;5078956;28;20028;-43
2023/01/21 03:57:04;;;;;;;35.13;18.92;;;-0.30;99.90;;;;;;5082750;28;20039;-43
2023/01/21 03:59:29;;;;;;;32.92;19.40;;;-0.30;99.90;;;;;;5083240;28;20035;-44
2023/01/21 04:01:55;;;;;;;33.63;18.95;;;-0.30;99.90;;;;;;5082879;28;20031;-44
2023/01/21 04:04:20;;;;;;;34.70;18.73;;;-0.30;99.90;;;;;;5082207;28;20031;-44
2023/01/21 04:06:46;;;;;;;31.80;17.20;;;-0.30;99.90;;;;;;5082638;28;20040;-44
2023/01/21 04:09:11;;;;;;;41.92;20.45;;;-0.30;99.90;;;;;;5080603;28;20036;-43
2023/01/21 04:11:37;;;;;;;38.63;20.15;;;-0.40;99.90;;;;;;5079767;28;20028;-44
2023/01/21 04:14:03;;;;;;;41.90;22.10;;;-0.30;99.90;;;;;;5068763;28;20024;-43
2023/01/21 04:16:28;;;;;;;37.47;20.67;;;-0.40;99.90;;;;;;5081198;28;20031;-44
2023/01/21 04:18:54;;;;;;;42.90;21.13;;;-0.40;99.90;;;;;;5083191;28;20040;-43
2023/01/21 04:21:20;;;;;;;34.13;19.75;;;-0.40;99.90;;;;;;5082535;28;20085;-43
2023/01/21 04:23:45;;;;;;;38.83;20.30;;;-0.40;99.90;;;;;;5082879;28;20020;-43
2023/01/21 04:26:11;;;;;;;40.25;21.10;;;-0.40;99.90;;;;;;5082116;28;20020;-42
2023/01/21 04:28:36;;;;;;;39.45;20.45;;;-0.40;99.90;;;;;;5082683;28;20489;-43
2023/01/21 04:31:02;;;;;;;37.38;19.67;;;-0.50;99.90;;;;;;5081347;28;20020;-43
2023/01/21 04:33:29;;;;;;;32.90;18.55;;;-0.40;99.90;;;;;;5082488;28;20020;-43
2023/01/21 04:35:59;;;;;;;34.67;19.42;;;-0.40;99.90;;;;;;5082347;28;20047;-43
2023/01/21 04:38:24;;;;;;;31.48;16.77;;;-0.50;99.90;;;;;;5081741;28;20407;-43
2023/01/21 04:40:50;;;;;;;30.98;18.05;;;-0.50;99.90;;;;;;5081874;28;20497;-43
2023/01/21 04:43:15;;;;;;;32.00;18.13;;;-0.50;99.90;;;;;;5081155;28;20480;-43
2023/01/21 04:45:41;;;;;;;35.90;18.35;;;-0.50;99.90;;;;;;5082394;28;20028;-41
2023/01/21 04:48:07;;;;;;;37.97;19.40;;;-0.50;99.90;;;;;;5081488;28;20063;-43
2023/01/21 04:50:32;;;;;;;31.67;17.60;;;-0.50;99.90;;;;;;5081450;28;20553;-42
2023/01/21 04:52:58;;;;;;;34.08;18.23;;;-0.50;99.90;;;;;;5081554;28;20031;-43
2023/01/21 04:55:23;;;;;;;30.40;16.75;;;-0.50;99.90;;;;;;5081722;28;20024;-43
2023/01/21 04:57:49;;;;;;;35.70;18.92;;;-0.50;99.90;;;;;;5081345;28;20749;-43
2023/01/21 05:00:15;;;;;;;36.37;19.83;;;-0.50;99.90;;;;;;5080871;28;20028;-43
2023/01/21 05:02:41;;;;;;;39.80;20.57;;;-0.60;99.90;;;;;;5081643;28;20826;-42
2023/01/21 05:05:06;;;;;;;38.40;19.87;;;-0.60;99.90;;;;;;5079589;28;20028;-43
2023/01/21 05:07:32;;;;;;;38.88;20.98;;;-0.60;99.90;;;;;;5081509;28;20090;-43
2023/01/21 05:09:58;;;;;;;38.92;21.17;;;-0.60;99.90;;;;;;5081415;28;20077;-44
2023/01/21 05:12:23;;;;;;;40.87;22.43;;;-0.60;99.90;;;;;;5080597;28;20032;-43
2023/01/21 05:14:53;;;;;;;41.30;20.47;;;-0.70;99.90;;;;;;5081699;28;20040;-43
2023/01/21 05:17:19;;;;;;;39.83;21.00;;;-0.60;99.90;;;;;;5080373;28;20807;-43
2023/01/21 05:19:44;;;;;;;42.73;21.27;;;-0.70;99.90;;;;;;5081311;28;20028;-44
2023/01/21 05:22:10;;;;;;;39.97;19.90;;;-0.70;99.90;;;;;;5080482;28;20051;-43
2023/01/21 05:24:35;;;;;;;37.73;19.37;;;-0.70;99.90;;;;;;5081449;28;20078;-43
2023/01/21 05:27:01;;;;;;;43.10;21.23;;;-0.70;99.90;;;;;;5080088;28;20024;-42
2023/01/21 05:29:26;;;;;;;41.50;20.93;;;-0.70;99.90;;;;;;5081331;28;20288;-43
2023/01/21 05:31:52;;;;;;;37.03;18.90;;;-0.70;99.90;;;;;;5080736;28;20111;-43
2023/01/21 05:34:17;;;;;;;38.67;20.87;;;-0.70;99.90;;;;;;5079819;28;20574;-43
2023/01/21 05:36:43;;;;;;;39.23;20.80;;;-0.70;99.90;;;;;;5081065;28;20107;-43
2023/01/21 05:39:08;;;;;;;39.28;19.42;;;-0.70;99.90;;;;;;5080521;28;20044;-43
2023/01/21 05:41:34;;;;;;;36.63;18.87;;;-0.70;99.90;;;;;;5080278;28;20455;-42
2023/01/21 05:44:00;;;;;;;39.63;19.57;;;-0.70;99.90;;;;;;5080839;28;20048;-43
2023/01/21 05:46:25;;;;;;;39.88;20.10;;;-0.70;99.90;;;;;;5081083;28;20533;-44
2023/01/21 05:48:51;;;;;;;42.73;21.07;;;-0.70;99.90;;;;;;5080088;28;20061;-43
2023/01/21 05:51:16;;;;;;;44.47;21.80;;;-0.70;99.90;;;;;;5080413;28;20529;-44
2023/01/21 05:53:42;;;;;;;43.47;23.00;;;-0.70;99.90;;;;;;5080119;28;20609;-44
2023/01/21 05:56:07;;;;;;;50.13;23.20;;;-0.70;99.90;;;;;;5080183;28;20027;-44
2023/01/21 05:58:33;;;;;;;47.87;25.27;;;-0.60;99.90;;;;;;5080615;28;20028;-42
2023/01/21 06:00:59;;;;;;;45.97;23.63;;;-0.60;99.90;;;;;;5080047;28;20019;-43
2023/01/21 06:03:25;;;;;;;45.97;22.85;;;-0.60;99.90;;;;;;5080112;28;20380;-43
2023/01/21 06:05:52;;;;;;;44.20;22.50;;;-0.60;99.90;;;;;;5080698;28;20028;-44
2023/01/21 06:08:18;;;;;;;46.97;22.63;;;-0.60;99.90;;;;;;5078886;28;20539;-43
2023/01/21 06:10:43;;;;;;;39.20;20.13;;;-0.50;99.90;;;;;;5080436;28;20555;-43
2023/01/21 06:13:13;;;;;;;44.47;22.25;;;-0.50;99.90;;;;;;5079908;28;20024;-43
2023/01/21 06:15:39;;;;;;;45.50;22.60;;;-0.40;99.90;;;;;;5080745;28;20043;-42
2023/01/21 06:18:05;;;;;;;51.80;25.30;;;-0.40;99.90;;;;;;5080479;28;20024;-42
2023/01/21 06:20:30;;;;;;;48.38;23.73;;;-0.40;99.90;;;;;;5080505;28;20084;-44
2023/01/21 06:22:57;;;;;;;49.40;25.17;;;-0.40;99.90;;;;;;5080089;28;20016;-43
2023/01/21 06:25:24;;;;;;;53.38;25.00;;;-0.30;99.90;;;;;;5080367;28;20062;-43
2023/01/21 06:27:49;;;;;;;52.13;25.85;;;-0.30;99.90;;;;;;5080917;28;20399;-42
2023/01/21 06:30:15;;;;;;;47.10;23.70;;;-0.20;99.90;;;;;;5079074;28;20016;-43
2023/01/21 06:32:41;;;;;;;49.88;24.00;;;-0.20;99.90;;;;;;5080925;28;20504;-44
2023/01/21 06:35:07;;;;;;;51.22;24.23;;;-0.20;99.90;;;;;;5079215;28;20044;-44
2023/01/21 06:37:32;;;;;;;54.90;27.25;;;-0.10;99.90;;;;;;5080450;28;20051;-43
2023/01/21 06:39:58;;;;;;;52.20;24.37;;;-0.10;99.90;;;;;;5083772;28;20020;-44
2023/01/21 06:42:23;;;;;;;50.35;23.48;;;-0.10;99.90;;;;;;5084389;28;20111;-43
2023/01/21 06:44:49;;;;;;;48.20;22.98;;;-0.10;99.90;;;;;;5083718;28;20066;-43
2023/01/21 06:47:14;;;;;;;53.95;24.65;;;-0.10;99.90;;;;;;5084182;28;20089;-43
2023/01/21 06:49:41;;;;;;;51.03;24.45;;;-0.10;99.90;;;;;;5084255;28;20114;-44
2023/01/21 06:52:07;;;;;;;51.97;23.80;;;-0.10;99.90;;;;;;5083218;28;20023;-42
2023/01/21 06:54:32;;;;;;;53.38;23.30;;;-0.10;99.90;;;;;;5084112;28;20380;-43
2023/01/21 06:56:58;;;;;;;51.38;23.38;;;-0.10;99.90;;;;;;5082754;28;20584;-43
2023/01/21 06:59:23;;;;;;;50.88;24.02;;;0.00;99.90;;;;;;5084046;28;20024;-43
2023/01/21 07:01:49;;;;;;;49.85;24.50;;;0.00;99.90;;;;;;5083882;28;20487;-44
2023/01/21 07:04:14;;;;;;;55.03;24.30;;;0.00;99.90;;;;;;5082657;28;20024;-44
2023/01/21 07:06:40;;;;;;;52.00;23.80;;;0.00;99.90;;;;;;5083989;28;20035;-44
2023/01/21 07:09:07;;;;;;;52.13;23.65;;;0.00;99.90;;;;;;5083426;28;20047;-44
2023/01/21 07:11:33;;;;;;;55.78;24.95;;;0.00;99.90;;;;;;5083085;28;20032;-44
2023/01/21 07:13:59;;;;;;;58.03;25.52;;;0.00;99.90;;;;;;5083441;28;20699;-44
2023/01/21 07:16:25;;;;;;;59.55;26.90;;;0.00;99.90;;;;;;5083366;28;20036;-43
2023/01/21 07:18:50;;;;;;;55.85;25.85;;;0.00;99.90;;;;;;5083070;28;20146;-42
2023/01/21 07:21:16;;;;;;;55.42;25.38;;;0.00;99.90;;;;;;5082564;28;20384;-43
2023/01/21 07:23:42;;;;;;;57.17;25.35;;;0.00;99.90;;;;;;5083296;28;20479;-43
2023/01/21 07:26:08;;;;;;;60.28;25.20;;;0.00;99.90;;;;;;5082257;28;20020;-43
2023/01/21 07:28:33;;;;;;;56.10;25.17;;;0.00;99.90;;;;;;5084481;28;20731;-43
2023/01/21 07:31:00;;;;;;;67.03;27.77;;;0.10;99.90;;;;;;5082933;28;20115;-44
2023/01/21 07:33:25;;;;;;;55.85;25.45;;;0.00;99.90;;;;;;5082743;28;20032;-43
2023/01/21 07:35:51;;;;;;;57.83;25.42;;;0.00;99.90;;;;;;5082778;28;20040;-43
2023/01/21 07:38:17;;;;;;;50.70;23.52;;;0.00;99.90;;;;;;5082966;28;20024;-44
2023/01/21 07:40:42;;;;;;;57.25;24.20;;;0.00;99.90;;;;;;5093676;28;20365;-43
2023/01/21 07:43:08;;;;;;;51.10;22.73;;;0.10;99.90;;;;;;5082819;28;20031;-42
2023/01/21 07:45:34;;;;;;;62.42;25.88;;;0.10;99.90;;;;;;5081932;28;20028;-42
2023/01/21 07:48:00;;;;;;;63.28;26.50;;;0.10;99.90;;;;;;5080964;28;20059;-43
2023/01/21 07:50:26;;;;;;;58.88;25.73;;;0.10;99.90;;;;;;5081015;28;20093;-43
2023/01/21 07:52:54;;;;;;;56.42;24.80;;;0.10;99.90;;;;;;5082320;28;20079;-43
2023/01/21 07:55:20;;;;;;;56.60;24.98;;;0.10;99.90;;;;;;5081538;28;20024;-44
2023/01/21 07:57:46;;;;;;;55.65;24.02;;;0.10;99.90;;;;;;5082220;28;20233;-43
2023/01/21 08:00:12;;;;;;;55.80;23.90;;;0.10;99.90;;;;;;5080889;28;20617;-43
2023/01/21 08:02:38;;;;;;;52.67;23.83;;;0.10;99.90;;;;;;5081548;28;20040;-42
2023/01/21 08:05:05;;;;;;;50.33;24.42;;;0.20;99.90;;;;;;5081649;28;20034;-42
2023/01/21 08:07:31;;;;;;;51.17;22.92;;;0.20;99.90;;;;;;5081528;28;20036;-43
2023/01/21 08:09:56;;;;;;;47.55;22.92;;;0.30;99.90;;;;;;5081773;28;20486;-45
2023/01/21 08:12:22;;;;;;;49.55;22.27;;;0.30;99.90;;;;;;5082104;28;20040;-43
2023/01/21 08:14:47;;;;;;;44.47;21.55;;;0.30;99.90;;;;;;5082685;28;20464;-44
2023/01/21 08:17:13;;;;;;;48.42;23.15;;;0.30;99.90;;;;;;5081607;28;20458;-43
2023/01/21 08:19:39;;;;;;;44.90;22.33;;;0.30;99.90;;;;;;5082213;28;20081;-42
2023/01/21 08:22:04;;;;;;;50.70;24.42;;;0.40;99.90;;;;;;5080612;28;20035;-44
2023/01/21 08:24:30;;;;;;;49.03;23.45;;;0.40;99.90;;;;;;5081634;28;20387;-43
2023/01/21 08:26:59;;;;;;;52.63;24.42;;;0.40;99.90;;;;;;5081307;28;20546;-43
2023/01/21 08:29:26;;;;;;;54.25;25.30;;;0.40;99.90;;;;;;5077083;28;20157;-44
2023/01/21 08:31:52;;;;;;;54.25;25.63;;;0.50;99.90;;;;;;5081669;28;20028;-43
2023/01/21 08:34:18;;;;;;;49.15;23.60;;;0.50;99.90;;;;;;5079864;28;20781;-43
2023/01/21 08:36:43;;;;;;;47.88;23.05;;;0.60;99.90;;;;;;5081261;28;20031;-43
2023/01/21 08:39:12;;;;;;;47.30;22.23;;;0.50;99.90;;;;;;5081781;28;20036;-43
2023/01/21 08:41:39;;;;;;;50.33;24.40;;;0.60;99.90;;;;;;5081763;28;20020;-43
2023/01/21 08:44:05;;;;;;;44.88;23.00;;;0.60;99.90;;;;;;5081710;28;20028;-44
2023/01/21 08:46:31;;;;;;;48.97;24.15;;;0.70;99.90;;;;;;5082313;28;20020;-43
2023/01/21 08:48:56;;;;;;;45.72;22.30;;;0.70;99.90;;;;;;5081684;28;20039;-45
2023/01/21 08:51:22;;;;;;;42.58;20.73;;;0.70;99.90;;;;;;5081549;28;20460;-44
2023/01/21 08:53:48;;;;;;;47.25;23.30;;;0.80;99.90;;;;;;5081759;28;20020;-44
2023/01/21 08:56:14;;;;;;;47.43;22.67;;;0.80;99.90;;;;;;5081470;28;20107;-43
2023/01/21 08:58:40;;;;;;;47.78;23.80;;;0.80;99.90;;;;;;5080954;28;20051;-41
2023/01/21 09:01:11;;;;;;;48.65;23.85;;;0.80;99.90;;;;;;5080674;28;20024;-43
2023/01/21 09:03:36;;;;;;;43.42;21.50;;;0.90;99.90;;;;;;5080780;28;20053;-43
2023/01/21 09:06:04;;;;;;;44.17;21.88;;;0.90;99.90;;;;;;5081465;28;20028;-44
2023/01/21 09:08:30;;;;;;;42.10;21.35;;;1.00;99.90;;;;;;5081987;28;20036;-44
2023/01/21 09:11:00;;;;;;;42.55;21.95;;;1.00;99.90;;;;;;5080667;28;20483;-42
2023/01/21 09:13:27;;;;;;;44.67;22.77;;;1.10;99.90;;;;;;5081415;28;20110;-43
2023/01/21 09:15:52;;;;;;;44.65;23.05;;;1.10;99.90;;;;;;5082086;28;20032;-43
2023/01/21 09:18:18;;;;;;;43.47;22.45;;;1.20;99.90;;;;;;5080659;28;20043;-44
2023/01/21 09:20:44;;;;;;;43.55;21.05;;;1.20;99.90;;;;;;5081783;28;20069;-44
2023/01/21 09:23:25;;;;;;;41.67;21.17;;;1.20;99.90;;;;;;5081450;28;20475;-43
2023/01/21 09:25:52;;;;;;;43.03;22.38;;;1.30;99.90;;;;;;5080553;28;20395;-43
2023/01/21 09:28:19;;;;;;;40.53;20.50;;;1.30;99.90;;;;;;5080764;28;20054;-43
2023/01/21 09:30:45;;;;;;;43.75;22.30;;;1.40;99.90;;;;;;5081586;28;20097;-43
2023/01/21 09:33:12;;;;;;;47.00;23.35;;;1.40;99.90;;;;;;5080547;28;20039;-44
2023/01/21 09:35:38;;;;;;;48.47;25.40;;;1.40;99.90;;;;;;5080919;28;20052;-45
2023/01/21 09:38:03;;;;;;;52.55;24.25;;;1.40;99.90;;;;;;5081030;28;20032;-44
2023/01/21 09:40:29;;;;;;;49.17;24.33;;;1.40;99.90;;;;;;5080928;28;20438;-44
2023/01/21 09:42:55;;;;;;;51.15;24.65;;;1.40;99.90;;;;;;5081681;28;20024;-43
2023/01/21 09:45:21;;;;;;;49.72;23.55;;;1.40;99.90;;;;;;5080638;28;20046;-44
2023/01/21 09:47:48;;;;;;;48.97;24.33;;;1.40;99.90;;;;;;5080748;28;20381;-43
2023/01/21 09:50:22;;;;;;;49.53;23.13;;;1.40;99.90;;;;;;5080387;28;20016;-44
2023/01/21 09:52:53;;;;;;;53.83;25.75;;;1.50;99.90;;;;;;5080328;28;20554;-43
2023/01/21 09:55:23;;;;;;;51.70;24.77;;;1.50;99.90;;;;;;5086907;28;20074;-44
2023/01/21 09:58:10;;;;;;;46.38;22.50;;;1.50;99.90;;;;;;5080486;28;20028;-45
2023/01/21 10:00:57;;;;;;;42.92;22.30;;;1.50;99.90;;;;;;5079652;28;20104;-43
2023/01/21 10:03:41;;;;;;;51.38;24.30;;;1.60;99.90;;;;;;5080428;28;20036;-43
2023/01/21 10:06:15;;;;;;;46.10;23.27;;;1.60;99.90;;;;;;5079710;28;20023;-42
2023/01/21 10:09:07;;;;;;;47.67;23.42;;;1.60;99.90;;;;;;5080363;28;20048;-43
2023/01/21 10:12:06;;;;;;;47.10;23.33;;;1.70;99.90;;;;;;5080339;28;20039;-44
2023/01/21 10:14:58;;;;;;;44.97;22.13;;;1.70;99.90;;;;;;5078589;28;20582;-43
2023/01/21 10:17:41;;;;;;;46.17;23.27;;;1.70;99.90;;;;;;5079456;28;20593;-43
2023/01/21 10:20:43;;;;;;;42.35;22.48;;;1.80;99.90;;;;;;5060055;28;20145;-43
2023/01/21 10:23:24;;;;;;;40.97;21.08;;;1.80;99.90;;;;;;5073881;28;20028;-42
2023/01/21 10:25:50;;;;;;;41.60;21.55;;;1.90;99.90;;;;;;5081128;28;20105;-43
2023/01/21 10:28:20;;;;;;;40.88;20.77;;;1.90;99.90;;;;;;5079111;28;20063;-43
2023/01/21 10:30:50;;;;;;;42.60;21.80;;;2.00;99.90;;;;;;5080448;28;20039;-44
2023/01/21 10:33:22;;;;;;;44.20;23.00;;;2.00;99.90;;;;;;5079409;28;20024;-42
2023/01/21 10:36:32;;;;;;;44.05;22.17;;;2.10;99.90;;;;;;5078370;28;20896;-44
2023/01/21 10:39:19;;;;;;;41.70;21.10;;;2.10;99.90;;;;;;4997381;28;20037;-44
2023/01/21 10:42:11;;;;;;;45.67;23.52;;;2.10;99.90;;;;;;4997458;28;20029;-43
2023/01/21 10:44:57;;;;;;;47.67;23.48;;;2.10;99.90;;;;;;5059977;28;20127;-45
2023/01/21 10:47:55;;;;;;;43.05;23.27;;;2.10;99.90;;;;;;5079950;28;20032;-44
2023/01/21 10:50:27;;;;;;;45.47;23.27;;;2.10;99.90;;;;;;5079269;28;20043;-42
2023/01/21 10:53:16;;;;;;;47.05;23.95;;;2.10;99.90;;;;;;5079644;28;20120;-44
2023/01/21 10:56:02;;;;;;;51.13;25.77;;;2.10;99.90;;;;;;5080312;28;20028;-44
2023/01/21 10:58:40;;;;;;;50.25;25.40;;;2.10;99.90;;;;;;5080418;28;20501;-43
2023/01/21 11:01:14;;;;;;;48.03;25.38;;;2.10;99.90;;;;;;5079784;28;20035;-42
2023/01/21 11:03:47;;;;;;;45.00;23.00;;;2.10;99.90;;;;;;5079060;28;20020;-43
2023/01/21 11:06:16;;;;;;;47.72;24.92;;;2.10;99.90;;;;;;5079451;28;20032;-43
2023/01/21 11:08:45;;;;;;;50.65;25.42;;;2.10;99.90;;;;;;5079889;28;20391;-43
2023/01/21 11:11:12;;;;;;;46.15;22.90;;;2.20;99.90;;;;;;5078218;28;20035;-43
2023/01/21 11:13:40;;;;;;;48.42;24.80;;;2.10;99.90;;;;;;5079773;28;20085;-44
2023/01/21 11:16:05;;;;;;;46.08;24.33;;;2.10;99.90;;;;;;5079580;28;20604;-43
2023/01/21 11:18:39;;;;;;;44.70;23.63;;;2.10;99.90;;;;;;5078759;28;20111;-48
2023/01/21 11:21:23;;;;;;;43.28;22.88;;;2.10;99.90;;;;;;5079176;28;20024;-43
2023/01/21 11:23:59;;;;;;;41.53;21.17;;;2.00;99.90;;;;;;5079174;28;20063;-42
2023/01/21 11:26:34;;;;;;;38.80;19.52;;;2.00;99.90;;;;;;5083126;28;20059;-43
2023/01/21 11:29:14;;;;;;;38.30;21.08;;;1.90;99.90;;;;;;5083038;28;20040;-43
2023/01/21 11:31:42;;;;;;;33.97;18.70;;;1.90;99.90;;;;;;5082662;28;20039;-43
2023/01/21 11:34:15;;;;;;;36.53;19.65;;;1.90;99.90;;;;;;5082474;28;20119;-43
2023/01/21 11:37:01;;;;;;;34.63;19.27;;;2.00;99.90;;;;;;5083097;28;20024;-43
2023/01/21 11:39:49;;;;;;;37.63;18.42;;;2.00;99.90;;;;;;5079715;28;20032;-43
2023/01/21 11:42:17;;;;;;;39.58;19.90;;;2.10;99.90;;;;;;5082540;28;20024;-44
2023/01/21 11:44:56;;;;;;;36.80;19.70;;;2.10;99.90;;;;;;5081541;28;20032;-43
2023/01/21 11:47:49;;;;;;;36.38;18.92;;;2.10;99.90;;;;;;5078044;28;20757;-41
2023/01/21 11:50:17;;;;;;;35.33;19.75;;;2.10;99.90;;;;;;5075696;28;20040;-43
2023/01/21 11:52:43;;;;;;;33.33;19.20;;;2.20;99.90;;;;;;5079331;28;20034;-43
2023/01/21 11:55:22;;;;;;;35.95;19.35;;;2.20;99.90;;;;;;5081388;28;20024;-43
2023/01/21 11:57:53;;;;;;;32.78;18.52;;;2.30;99.90;;;;;;5083032;28;20039;-44
2023/01/21 12:00:24;;;;;;;33.47;19.17;;;2.30;99.90;;;;;;5080787;28;20472;-43
2023/01/21 12:02:58;;;;;;;32.17;17.73;;;2.30;99.90;;;;;;5083106;28;20024;-43
2023/01/21 12:05:29;;;;;;;31.77;17.25;;;2.40;99.90;;;;;;5082213;28;20020;-43
2023/01/21 12:07:56;;;;;;;32.83;16.88;;;2.50;99.90;;;;;;5081655;28;20584;-44
2023/01/21 12:10:29;;;;;;;30.33;16.25;;;2.50;99.90;;;;;;5081541;28;20104;-44
2023/01/21 12:13:25;;;;;;;28.23;16.08;;;2.60;99.90;;;;;;5082968;28;20446;-43
2023/01/21 12:16:06;;;;;;;26.58;14.88;;;2.70;99.90;;;;;;5082016;28;20498;-44
2023/01/21 12:19:08;;;;;;;31.05;17.10;;;2.80;99.90;;;;;;5082605;28;20032;-43
2023/01/21 12:21:47;;;;;;;26.73;15.15;;;3.00;99.90;;;;;;5081401;28;20032;-43
2023/01/21 12:24:31;;;;;;;28.85;16.30;;;3.10;99.90;;;;;;5081675;28;20227;-43
2023/01/21 12:27:28;;;;;;;27.70;16.55;;;3.20;99.90;;;;;;5081610;28;20024;-45
2023/01/21 12:30:15;;;;;;;28.38;15.57;;;3.20;99.90;;;;;;5082887;28;20063;-43
2023/01/21 12:32:42;;;;;;;29.08;15.43;;;3.30;99.90;;;;;;5080184;28;20082;-42
2023/01/21 12:35:33;;;;;;;28.80;15.43;;;3.30;99.90;;;;;;5080339;28;20057;-43
2023/01/21 12:38:21;;;;;;;28.05;15.13;;;3.30;99.90;;;;;;5078931;28;20039;-43
2023/01/21 12:40:58;;;;;;;23.10;14.10;;;3.30;99.90;;;;;;5082601;28;20031;-43
2023/01/21 12:43:38;;;;;;;22.95;13.48;;;3.40;99.90;;;;;;5070175;28;20020;-43
2023/01/21 12:46:26;;;;;;;26.40;13.90;;;3.40;99.90;;;;;;5081195;28;20031;-42
2023/01/21 12:49:20;;;;;;;22.58;13.50;;;3.50;99.90;;;;;;5073247;28;20028;-43
2023/01/21 12:51:50;;;;;;;23.05;13.68;;;3.60;99.90;;;;;;5079227;28;20539;-43
2023/01/21 12:54:31;;;;;;;22.92;13.70;;;3.60;99.90;;;;;;5078974;28;20908;-43